Time;durP1;ratioP1;P1;durP2;ratioP2;P2;SDS_P1;SDS_P2;PMS_P1;PMS_P2;Temp;Humidity;BMP_temperature;BMP_pressure;BME280_temperature;BME280_humidity;BME280_pressure;Samples;Min_cycle;Max_cycle;Signal;HPM_P1;HPM_P2
2023/09/23 00:00:56;;;;;;;;;;;;;;;11.57;100.00;96060.41;5105869;28;19929;-71
2023/09/23 00:03:23;;;;;;;;;;;;;;;11.61;100.00;96077.25;5105506;28;19939;-69
2023/09/23 00:05:50;;;;;;;;;;;;;;;11.66;100.00;96073.94;5105685;28;19935;-73
2023/09/23 00:08:18;;;;;;;;;;;;;;;11.67;100.00;96078.16;5106235;28;19936;-72
2023/09/23 00:10:45;;;;;;;;;;;;;;;11.68;100.00;96074.53;5105372;28;19937;-71
2023/09/23 00:13:11;;;;;;;;;;;;;;;11.69;100.00;96062.97;5105302;28;20217;-72
2023/09/23 00:15:41;;;;;;;;;;;;;;;11.69;100.00;96063.75;5105046;28;19985;-72
2023/09/23 00:18:07;;;;;;;;;;;;;;;11.71;100.00;96071.41;5105202;28;20129;-72
2023/09/23 00:20:33;;;;;;;;;;;;;;;11.70;100.00;96070.63;5105182;28;19940;-69
2023/09/23 00:22:59;;;;;;;;;;;;;;;11.67;100.00;96065.81;5105669;28;20111;-71
2023/09/23 00:25:25;;;;;;;;;;;;;;;11.65;100.00;96069.72;5104620;28;19963;-71
2023/09/23 00:27:54;;;;;;;;;;;;;;;11.64;100.00;96063.66;5105080;28;20219;-71
2023/09/23 00:30:22;;;;;;;;;;;;;;;11.63;100.00;96066.53;5105020;28;19945;-70
2023/09/23 00:32:48;;;;;;;;;;;;;;;11.61;100.00;96074.63;5105475;28;19944;-71
2023/09/23 00:35:15;;;;;;;;;;;;;;;11.61;100.00;96069.38;5104283;28;19954;-71
2023/09/23 00:37:42;;;;;;;;;;;;;;;11.57;100.00;96079.56;5105337;28;19959;-71
2023/09/23 00:40:19;;;;;;;;;;;;;;;11.55;100.00;96080.84;5104844;28;19941;-71
2023/09/23 00:42:48;;;;;;;;;;;;;;;11.52;100.00;96078.66;5105092;28;19936;-72
2023/09/23 00:45:19;;;;;;;;;;;;;;;11.49;100.00;96076.50;5105015;28;19940;-72
2023/09/23 00:47:45;;;;;;;;;;;;;;;11.45;100.00;96081.41;5104473;28;19926;-72
2023/09/23 00:50:20;;;;;;;;;;;;;;;11.40;100.00;96083.13;5105532;28;19928;-72
2023/09/23 00:52:53;;;;;;;;;;;;;;;11.36;100.00;96083.63;5105245;28;19931;-72
2023/09/23 00:55:19;;;;;;;;;;;;;;;11.29;100.00;96076.88;5105201;28;20104;-72
2023/09/23 00:57:52;;;;;;;;;;;;;;;11.21;100.00;96075.41;5104504;28;19958;-70
2023/09/23 01:00:25;;;;;;;;;;;;;;;11.16;100.00;96078.72;5105430;28;20116;-72
2023/09/23 01:02:55;;;;;;;;;;;;;;;11.12;100.00;96071.53;5105293;28;20203;-72
2023/09/23 01:05:28;;;;;;;;;;;;;;;11.12;100.00;96076.78;5104480;28;19933;-72
2023/09/23 01:08:00;;;;;;;;;;;;;;;11.09;100.00;96080.69;5105022;28;19936;-72
2023/09/23 01:10:26;;;;;;;;;;;;;;;11.08;100.00;96079.06;5104921;28;20221;-71
2023/09/23 01:12:52;;;;;;;;;;;;;;;11.04;100.00;96087.63;5105248;28;19932;-71
2023/09/23 01:15:17;;;;;;;;;;;;;;;11.00;100.00;96094.38;5104240;28;19954;-71
2023/09/23 01:17:49;;;;;;;;;;;;;;;10.96;100.00;96080.91;5104246;28;19956;-72
2023/09/23 01:20:16;;;;;;;;;;;;;;;10.92;100.00;96095.53;5104983;28;20124;-72
2023/09/23 01:22:43;;;;;;;;;;;;;;;10.90;100.00;96092.34;5104258;28;20196;-72
2023/09/23 01:25:09;;;;;;;;;;;;;;;10.89;100.00;96095.97;5103787;28;19943;-72
2023/09/23 01:27:35;;;;;;;;;;;;;;;10.84;100.00;96098.50;5104256;28;19933;-72
2023/09/23 01:30:05;;;;;;;;;;;;;;;10.80;100.00;96107.84;5104270;28;20002;-72
2023/09/23 01:32:37;;;;;;;;;;;;;;;10.75;100.00;96119.00;5105021;28;19959;-72
2023/09/23 01:35:03;;;;;;;;;;;;;;;10.71;100.00;96123.91;5104435;28;19950;-72
2023/09/23 01:37:29;;;;;;;;;;;;;;;10.68;100.00;96131.41;5106222;28;20153;-72
2023/09/23 01:39:55;;;;;;;;;;;;;;;10.64;100.00;96138.13;5108301;28;19938;-72
2023/09/23 01:42:21;;;;;;;;;;;;;;;10.61;100.00;96133.34;5108288;28;19929;-72
2023/09/23 01:44:48;;;;;;;;;;;;;;;10.56;100.00;96129.59;5108170;28;19938;-72
2023/09/23 01:47:20;;;;;;;;;;;;;;;10.53;100.00;96127.41;5108184;28;19929;-72
2023/09/23 01:49:46;;;;;;;;;;;;;;;10.49;100.00;96115.75;5108925;28;19942;-72
2023/09/23 01:52:15;;;;;;;;;;;;;;;10.49;100.00;96112.34;5108057;28;19938;-72
2023/09/23 01:54:41;;;;;;;;;;;;;;;10.48;100.00;96116.00;5106930;28;20217;-71
2023/09/23 01:57:06;;;;;;;;;;;;;;;10.44;100.00;96120.09;5108476;28;19951;-69
2023/09/23 01:59:32;;;;;;;;;;;;;;;10.42;100.00;96119.53;5107916;28;19975;-69
2023/09/23 02:01:59;;;;;;;;;;;;;;;10.40;100.00;96129.44;5108732;28;20003;-69
2023/09/23 02:04:24;;;;;;;;;;;;;;;10.39;100.00;96146.16;5107798;28;19937;-68
2023/09/23 02:06:51;;;;;;;;;;;;;;;10.36;100.00;96134.31;5107761;28;20250;-69
2023/09/23 02:09:17;;;;;;;;;;;;;;;10.36;100.00;96136.94;5108579;28;20215;-69
2023/09/23 02:11:43;;;;;;;;;;;;;;;10.33;100.00;96132.13;5107716;28;19933;-68
2023/09/23 02:14:09;;;;;;;;;;;;;;;10.30;100.00;96136.00;5107128;28;19931;-69
2023/09/23 02:16:34;;;;;;;;;;;;;;;10.30;100.00;96146.47;5106335;28;19961;-71
2023/09/23 02:19:02;;;;;;;;;;;;;;;10.27;100.00;96141.69;5107543;28;19949;-71
2023/09/23 02:21:28;;;;;;;;;;;;;;;10.24;100.00;96144.72;5108040;28;20113;-73
2023/09/23 02:23:56;;;;;;;;;;;;;;;10.24;100.00;96138.69;5107499;28;19936;-71
2023/09/23 02:26:23;;;;;;;;;;;;;;;10.21;100.00;96139.16;5107877;28;20212;-72
2023/09/23 02:28:49;;;;;;;;;;;;;;;10.18;100.00;96145.59;5106304;28;20121;-72
2023/09/23 02:31:16;;;;;;;;;;;;;;;10.15;100.00;96148.69;5107873;28;19936;-69
2023/09/23 02:33:43;;;;;;;;;;;;;;;10.13;100.00;96154.16;5107244;28;20217;-72
2023/09/23 02:36:11;;;;;;;;;;;;;;;10.11;100.00;96156.19;5106087;28;19958;-72
2023/09/23 02:38:37;;;;;;;;;;;;;;;10.08;100.00;96156.66;5107945;28;19935;-72
2023/09/23 02:41:04;;;;;;;;;;;;;;;10.07;100.00;96155.03;5107079;28;19934;-72
2023/09/23 02:43:29;;;;;;;;;;;;;;;10.06;100.00;96161.31;5106003;28;19940;-72
2023/09/23 02:45:56;;;;;;;;;;;;;;;10.07;100.00;96176.00;5107061;28;19926;-72
2023/09/23 02:48:23;;;;;;;;;;;;;;;10.05;100.00;96183.28;5107044;28;19936;-70
2023/09/23 02:50:49;;;;;;;;;;;;;;;10.04;100.00;96188.75;5106945;28;19932;-69
2023/09/23 02:53:15;;;;;;;;;;;;;;;9.99;100.00;96191.22;5107125;28;19929;-70
2023/09/23 02:55:43;;;;;;;;;;;;;;;9.93;100.00;96201.56;5106837;28;19937;-70
2023/09/23 02:58:10;;;;;;;;;;;;;;;9.90;100.00;96196.75;5107531;28;19947;-71
2023/09/23 03:00:37;;;;;;;;;;;;;;;9.87;100.00;96199.00;5106694;28;19934;-71
2023/09/23 03:03:08;;;;;;;;;;;;;;;9.84;100.00;96192.38;5106695;28;19931;-70
2023/09/23 03:05:38;;;;;;;;;;;;;;;9.80;100.00;96188.59;5107498;28;19944;-70
2023/09/23 03:08:07;;;;;;;;;;;;;;;9.77;100.00;96202.16;5105371;28;19940;-72
2023/09/23 03:10:39;;;;;;;;;;;;;;;9.72;100.00;96202.81;5107381;28;20201;-69
2023/09/23 03:13:10;;;;;;;;;;;;;;;9.70;100.00;96204.84;5106803;28;19949;-69
2023/09/23 03:15:58;;;;;;;;;;;;;;;9.67;100.00;96207.88;5106226;28;19964;-69
2023/09/23 03:18:33;;;;;;;;;;;;;;;9.65;100.00;96212.53;5107190;28;19953;-69
2023/09/23 03:21:09;;;;;;;;;;;;;;;9.63;100.00;96219.00;5107160;28;20132;-69
2023/09/23 03:23:37;;;;;;;;;;;;;;;9.61;100.00;96221.84;5106832;28;19957;-69
2023/09/23 03:26:04;;;;;;;;;;;;;;;9.58;100.00;96216.25;5106489;28;19931;-72
2023/09/23 03:28:30;;;;;;;;;;;;;;;9.56;100.00;96216.47;5105117;28;20238;-72
2023/09/23 03:31:00;;;;;;;;;;;;;;;9.52;100.00;96220.53;5106156;28;19941;-72
2023/09/23 03:33:27;;;;;;;;;;;;;;;9.49;100.00;96224.38;5106920;28;19930;-72
2023/09/23 03:35:53;;;;;;;;;;;;;;;9.45;100.00;96219.78;5106092;28;19959;-72
2023/09/23 03:38:20;;;;;;;;;;;;;;;9.45;100.00;96232.88;5105624;28;19962;-71
2023/09/23 03:40:56;;;;;;;;;;;;;;;9.44;100.00;96226.84;5105912;28;19940;-72
2023/09/23 03:43:22;;;;;;;;;;;;;;;9.46;100.00;96227.41;5106720;28;19936;-71
2023/09/23 03:45:48;;;;;;;;;;;;;;;9.46;100.00;96231.84;5106671;28;19934;-69
2023/09/23 03:48:14;;;;;;;;;;;;;;;9.45;100.00;96228.44;5106327;28;19933;-71
2023/09/23 03:50:40;;;;;;;;;;;;;;;9.46;100.00;96237.09;5106318;28;20102;-72
2023/09/23 03:53:06;;;;;;;;;;;;;;;9.45;100.00;96236.31;5104796;28;19935;-72
2023/09/23 03:55:32;;;;;;;;;;;;;;;9.45;100.00;96244.16;5105630;28;19967;-72
2023/09/23 03:57:58;;;;;;;;;;;;;;;9.43;100.00;96246.19;5106386;28;19949;-72
2023/09/23 04:00:27;;;;;;;;;;;;;;;9.43;100.00;96248.81;5105276;28;20104;-71
2023/09/23 04:02:54;;;;;;;;;;;;;;;9.41;100.00;96250.00;5106347;28;19955;-71
2023/09/23 04:05:20;;;;;;;;;;;;;;;9.40;100.00;96249.22;5106069;28;19932;-71
2023/09/23 04:07:50;;;;;;;;;;;;;;;9.38;100.00;96246.00;5105042;28;19932;-71
2023/09/23 04:10:23;;;;;;;;;;;;;;;9.37;100.00;96249.66;5106155;28;19934;-72
2023/09/23 04:12:49;;;;;;;;;;;;;;;9.36;100.00;96245.44;5105359;28;20121;-71
2023/09/23 04:15:15;;;;;;;;;;;;;;;9.34;100.00;96252.69;5105113;28;19961;-71
2023/09/23 04:17:41;;;;;;;;;;;;;;;9.31;100.00;96259.16;5104619;28;19950;-71
2023/09/23 04:20:10;;;;;;;;;;;;;;;9.31;100.00;96253.91;5105210;28;19940;-69
2023/09/23 04:22:41;;;;;;;;;;;;;;;9.31;100.00;96255.75;5105714;28;20207;-69
2023/09/23 04:25:10;;;;;;;;;;;;;;;9.31;100.00;96253.13;5105138;28;19933;-71
2023/09/23 04:27:37;;;;;;;;;;;;;;;9.31;100.00;96253.91;5104722;28;19945;-71
2023/09/23 04:30:06;;;;;;;;;;;;;;;9.31;100.00;96250.50;5104419;28;19932;-71
2023/09/23 04:32:32;;;;;;;;;;;;;;;9.31;100.00;96256.53;5104966;28;19929;-71
2023/09/23 04:34:58;;;;;;;;;;;;;;;9.31;100.00;96264.41;5104640;28;19953;-71
2023/09/23 04:37:24;;;;;;;;;;;;;;;9.30;100.00;96265.41;5104845;28;20211;-71
2023/09/23 04:39:50;;;;;;;;;;;;;;;9.30;100.00;96268.03;5105141;28;19928;-72
2023/09/23 04:42:16;;;;;;;;;;;;;;;9.30;100.00;96269.84;5104793;28;19936;-68
2023/09/23 04:44:42;;;;;;;;;;;;;;;9.30;100.00;96269.84;5105278;28;19936;-69
2023/09/23 04:47:08;;;;;;;;;;;;;;;9.28;100.00;96271.84;5105265;28;19936;-68
2023/09/23 04:49:34;;;;;;;;;;;;;;;9.26;100.00;96271.28;5104676;28;19951;-68
2023/09/23 04:52:00;;;;;;;;;;;;;;;9.25;100.00;96273.09;5104663;28;19995;-69
2023/09/23 04:54:26;;;;;;;;;;;;;;;9.25;100.00;96272.31;5104581;28;20000;-69
2023/09/23 04:56:52;;;;;;;;;;;;;;;9.23;100.00;96276.94;5105016;28;20205;-69
2023/09/23 04:59:18;;;;;;;;;;;;;;;9.22;100.00;96286.63;5104604;28;20014;-69
2023/09/23 05:01:44;;;;;;;;;;;;;;;9.17;100.00;96283.81;5104747;28;20241;-68
2023/09/23 05:04:12;;;;;;;;;;;;;;;9.17;100.00;96296.91;5104462;28;19932;-68
2023/09/23 05:06:38;;;;;;;;;;;;;;;9.12;100.00;96291.53;5104989;28;19944;-69
2023/09/23 05:09:04;;;;;;;;;;;;;;;9.10;100.00;96293.53;5104457;28;19930;-68
2023/09/23 05:11:30;;;;;;;;;;;;;;;9.07;100.00;96296.56;5104224;28;19934;-70
2023/09/23 05:13:56;;;;;;;;;;;;;;;9.07;100.00;96288.72;5104412;28;19941;-69
2023/09/23 05:16:22;;;;;;;;;;;;;;;9.07;100.00;96296.56;5104180;28;20021;-69
2023/09/23 05:18:49;;;;;;;;;;;;;;;9.08;100.00;96298.19;5103214;28;19956;-72
2023/09/23 05:21:18;;;;;;;;;;;;;;;9.09;100.00;96311.06;5104914;28;20224;-72
2023/09/23 05:23:48;;;;;;;;;;;;;;;9.07;100.00;96317.50;5103742;28;19926;-72
2023/09/23 05:26:16;;;;;;;;;;;;;;;9.06;100.00;96318.53;5105095;28;19939;-72
2023/09/23 05:28:42;;;;;;;;;;;;;;;9.08;100.00;96319.09;5103199;28;19927;-73
2023/09/23 05:31:08;;;;;;;;;;;;;;;9.08;100.00;96321.72;5104222;28;20104;-72
2023/09/23 05:33:34;;;;;;;;;;;;;;;9.10;100.00;96323.13;5104261;28;19968;-72
2023/09/23 05:36:00;;;;;;;;;;;;;;;9.09;100.00;96321.53;5104217;28;19950;-69
2023/09/23 05:38:26;;;;;;;;;;;;;;;9.12;100.00;96323.69;5104101;28;19948;-73
2023/09/23 05:40:52;;;;;;;;;;;;;;;9.16;100.00;96326.72;5104186;28;19942;-73
2023/09/23 05:43:18;;;;;;;;;;;;;;;9.18;100.00;96329.91;5104983;28;19938;-73
2023/09/23 05:45:44;;;;;;;;;;;;;;;9.21;100.00;96339.94;5103003;28;19939;-72
2023/09/23 05:48:09;;;;;;;;;;;;;;;9.22;100.00;96344.19;5104098;28;19942;-73
2023/09/23 05:50:36;;;;;;;;;;;;;;;9.25;100.00;96345.56;5104025;28;19937;-73
2023/09/23 05:53:02;;;;;;;;;;;;;;;9.27;100.00;96354.81;5104370;28;20128;-73
2023/09/23 05:55:28;;;;;;;;;;;;;;;9.29;100.00;96347.53;5104595;28;20015;-71
2023/09/23 05:57:54;;;;;;;;;;;;;;;9.31;100.00;96363.84;5104393;28;19953;-71
2023/09/23 06:00:19;;;;;;;;;;;;;;;9.32;100.00;96365.44;5104032;28;20035;-71
2023/09/23 06:02:45;;;;;;;;;;;;;;;9.37;100.00;96369.25;5104757;28;20232;-71
2023/09/23 06:05:11;;;;;;;;;;;;;;;9.38;100.00;96382.09;5104474;28;19932;-71
2023/09/23 06:07:37;;;;;;;;;;;;;;;9.40;100.00;96384.53;5103882;28;20095;-72
2023/09/23 06:10:04;;;;;;;;;;;;;;;9.41;100.00;96386.94;5103904;28;19934;-71
2023/09/23 06:12:30;;;;;;;;;;;;;;;9.43;100.00;96392.75;5104391;28;19989;-72
2023/09/23 06:15:00;;;;;;;;;;;;;;;9.45;100.00;96395.97;5103938;28;19962;-68
2023/09/23 06:17:27;;;;;;;;;;;;;;;9.47;100.00;96401.78;5103859;28;19965;-68
2023/09/23 06:19:53;;;;;;;;;;;;;;;9.52;100.00;96411.63;5103733;28;19935;-69
2023/09/23 06:22:19;;;;;;;;;;;;;;;9.55;100.00;96419.88;5104135;28;19928;-68
2023/09/23 06:24:45;;;;;;;;;;;;;;;9.59;100.00;96414.97;5107973;28;19994;-68
2023/09/23 06:27:11;;;;;;;;;;;;;;;9.61;100.00;96417.41;5107937;28;19936;-68
2023/09/23 06:29:37;;;;;;;;;;;;;;;9.65;100.00;96408.09;5106171;28;19946;-71
2023/09/23 06:32:04;;;;;;;;;;;;;;;9.68;100.00;96421.59;5108126;28;19937;-72
2023/09/23 06:34:29;;;;;;;;;;;;;;;9.71;100.00;96421.16;5107232;28;20242;-72
2023/09/23 06:36:56;;;;;;;;;;;;;;;9.74;100.00;96422.53;5107207;28;19939;-72
2023/09/23 06:39:24;;;;;;;;;;;;;;;9.79;100.00;96421.91;5107123;28;19962;-72
2023/09/23 06:41:50;;;;;;;;;;;;;;;9.82;100.00;96424.09;5107102;28;19947;-72
2023/09/23 06:44:16;;;;;;;;;;;;;;;9.87;100.00;96421.63;5107104;28;19938;-72
2023/09/23 06:46:41;;;;;;;;;;;;;;;9.92;100.00;96427.03;5107399;28;20224;-72
2023/09/23 06:49:08;;;;;;;;;;;;;;;10.00;100.00;96426.00;5107070;28;19937;-72
2023/09/23 06:51:33;;;;;;;;;;;;;;;10.02;100.00;96424.75;5107218;28;19941;-71
2023/09/23 06:53:59;;;;;;;;;;;;;;;10.01;100.00;96431.00;5106913;28;19930;-71
2023/09/23 06:56:25;;;;;;;;;;;;;;;10.08;100.00;96441.41;5106847;28;19935;-70
2023/09/23 06:58:51;;;;;;;;;;;;;;;10.20;100.00;96441.53;5107301;28;19979;-71
2023/09/23 07:01:17;;;;;;;;;;;;;;;10.28;100.00;96434.19;5106772;28;19932;-71
2023/09/23 07:03:43;;;;;;;;;;;;;;;10.34;100.00;96440.41;5106696;28;20008;-71
2023/09/23 07:06:09;;;;;;;;;;;;;;;10.40;100.00;96452.66;5106366;28;20206;-72
2023/09/23 07:08:34;;;;;;;;;;;;;;;10.52;100.00;96457.97;5106657;28;19995;-71
2023/09/23 07:11:01;;;;;;;;;;;;;;;10.62;100.00;96454.88;5107126;28;19936;-68
2023/09/23 07:13:27;;;;;;;;;;;;;;;10.75;100.00;96462.59;5106540;28;19923;-68
2023/09/23 07:15:52;;;;;;;;;;;;;;;10.93;100.00;96461.81;5106615;28;20002;-68
2023/09/23 07:18:18;;;;;;;;;;;;;;;11.11;100.00;96464.41;5106392;28;19955;-69
2023/09/23 07:20:44;;;;;;;;;;;;;;;11.26;100.00;96450.91;5107177;28;19937;-68
2023/09/23 07:23:10;;;;;;;;;;;;;;;11.46;100.00;96463.75;5105561;28;19936;-69
2023/09/23 07:25:37;;;;;;;;;;;;;;;11.69;100.00;96460.41;5106316;28;19934;-72
2023/09/23 07:28:03;;;;;;;;;;;;;;;11.91;100.00;96457.31;5106275;28;19934;-68
2023/09/23 07:30:32;;;;;;;;;;;;;;;12.04;100.00;96457.09;5107037;28;19935;-69
2023/09/23 07:32:59;;;;;;;;;;;;;;;12.14;100.00;96457.34;5106445;28;19937;-69
2023/09/23 07:35:29;;;;;;;;;;;;;;;12.05;100.00;96456.06;5106032;28;19989;-69
2023/09/23 07:37:54;;;;;;;;;;;;;;;11.91;100.00;96467.81;5105919;28;19948;-69
2023/09/23 07:40:20;;;;;;;;;;;;;;;11.83;100.00;96479.41;5105972;28;19939;-69
2023/09/23 07:42:46;;;;;;;;;;;;;;;11.81;100.00;96485.94;5105077;28;19942;-71
2023/09/23 07:45:12;;;;;;;;;;;;;;;11.83;100.00;96489.13;5088665;28;19996;-71
2023/09/23 07:47:38;;;;;;;;;;;;;;;11.95;100.00;96495.25;5105871;28;20021;-71
2023/09/23 07:50:04;;;;;;;;;;;;;;;12.12;100.00;96495.41;5105771;28;19969;-71
2023/09/23 07:52:32;;;;;;;;;;;;;;;12.33;100.00;96505.38;5105877;28;20115;-71
2023/09/23 07:54:58;;;;;;;;;;;;;;;12.52;100.00;96490.28;5105729;28;19940;-72
2023/09/23 07:57:24;;;;;;;;;;;;;;;12.63;100.00;96499.22;5105624;28;19929;-71
2023/09/23 07:59:50;;;;;;;;;;;;;;;12.64;100.00;96469.25;5106128;28;19928;-71
2023/09/23 08:02:16;;;;;;;;;;;;;;;12.67;100.00;96484.56;5106142;28;19940;-72
2023/09/23 08:04:42;;;;;;;;;;;;;;;12.70;100.00;96491.19;5106089;28;20007;-71
2023/09/23 08:07:08;;;;;;;;;;;;;;;12.79;100.00;96500.34;5105474;28;19937;-71
2023/09/23 08:09:33;;;;;;;;;;;;;;;12.90;100.00;96502.16;5105437;28;19988;-73
2023/09/23 08:11:59;;;;;;;;;;;;;;;13.05;100.00;96500.88;5105408;28;19932;-72
2023/09/23 08:14:26;;;;;;;;;;;;;;;13.15;100.00;96482.66;5104952;28;19940;-71
2023/09/23 08:16:52;;;;;;;;;;;;;;;13.26;100.00;96481.81;5105291;28;19939;-72
2023/09/23 08:19:18;;;;;;;;;;;;;;;13.36;100.00;96489.16;5105201;28;20008;-73
2023/09/23 08:21:45;;;;;;;;;;;;;;;13.45;100.00;96500.13;5105195;28;19933;-69
2023/09/23 08:24:11;;;;;;;;;;;;;;;13.49;100.00;96472.28;5105291;28;19940;-70
2023/09/23 08:26:38;;;;;;;;;;;;;;;13.53;100.00;96484.75;5105154;28;19950;-70
2023/09/23 08:29:05;;;;;;;;;;;;;;;13.44;100.00;96467.72;5105087;28;19936;-70
2023/09/23 08:31:31;;;;;;;;;;;;;;;13.38;100.00;96508.16;5104021;28;19932;-70
2023/09/23 08:33:58;;;;;;;;;;;;;;;13.26;100.00;96502.88;5105485;28;19941;-70
2023/09/23 08:36:24;;;;;;;;;;;;;;;13.14;100.00;96505.53;5105794;28;20115;-71
2023/09/23 08:38:50;;;;;;;;;;;;;;;13.08;100.00;96514.41;5105707;28;20025;-72
2023/09/23 08:41:20;;;;;;;;;;;;;;;13.17;100.00;96528.78;5103869;28;19937;-72
2023/09/23 08:43:49;;;;;;;;;;;;;;;13.31;100.00;96518.03;5104806;28;19936;-72
2023/09/23 08:46:17;;;;;;;;;;;;;;;13.30;100.00;96517.22;5105021;28;20091;-71
2023/09/23 08:48:43;;;;;;;;;;;;;;;13.33;100.00;96527.31;5104913;28;19937;-72
2023/09/23 08:51:11;;;;;;;;;;;;;;;13.42;100.00;96522.47;5103622;28;19940;-71
2023/09/23 08:53:41;;;;;;;;;;;;;;;13.50;100.00;96511.56;5103754;28;20220;-72
2023/09/23 08:56:08;;;;;;;;;;;;;;;13.60;100.00;96535.44;5105232;28;19953;-71
2023/09/23 08:58:34;;;;;;;;;;;;;;;13.59;100.00;96491.72;5105358;28;19950;-72
2023/09/23 09:01:00;;;;;;;;;;;;;;;13.62;100.00;96523.88;5104941;28;19937;-70
2023/09/23 09:03:27;;;;;;;;;;;;;;;13.68;100.00;96505.28;5104827;28;19931;-70
2023/09/23 09:05:53;;;;;;;;;;;;;;;13.79;100.00;96511.56;5104495;28;20230;-70
2023/09/23 09:08:19;;;;;;;;;;;;;;;13.81;100.00;96507.63;5104839;28;20122;-70
2023/09/23 09:10:45;;;;;;;;;;;;;;;13.91;100.00;96514.13;5105053;28;19926;-70
2023/09/23 09:13:10;;;;;;;;;;;;;;;14.00;100.00;96500.31;5104472;28;19941;-70
2023/09/23 09:15:37;;;;;;;;;;;;;;;14.10;100.00;96509.44;5104638;28;19971;-69
2023/09/23 09:18:04;;;;;;;;;;;;;;;14.19;100.00;96503.56;5105167;28;19956;-69
2023/09/23 09:20:30;;;;;;;;;;;;;;;14.24;100.00;96487.00;5104356;28;20132;-69
2023/09/23 09:22:56;;;;;;;;;;;;;;;14.31;100.00;96514.00;5104405;28;19936;-69
2023/09/23 09:25:22;;;;;;;;;;;;;;;14.37;100.00;96514.91;5104325;28;19937;-69
2023/09/23 09:27:48;;;;;;;;;;;;;;;14.39;100.00;96495.16;5104836;28;19940;-69
2023/09/23 09:30:14;;;;;;;;;;;;;;;14.42;100.00;96493.88;5104316;28;19934;-68
2023/09/23 09:32:41;;;;;;;;;;;;;;;14.45;100.00;96495.22;5105057;28;19936;-70
2023/09/23 09:35:11;;;;;;;;;;;;;;;14.51;100.00;96515.38;5104439;28;19955;-71
2023/09/23 09:37:39;;;;;;;;;;;;;;;14.58;99.94;96473.81;5104068;28;19939;-72
2023/09/23 09:40:08;;;;;;;;;;;;;;;14.61;99.35;96479.41;5104182;28;20123;-72
2023/09/23 09:42:36;;;;;;;;;;;;;;;14.61;99.98;96484.69;5104168;28;19930;-73
2023/09/23 09:45:04;;;;;;;;;;;;;;;14.61;100.00;96497.91;5104192;28;19936;-72
2023/09/23 09:47:31;;;;;;;;;;;;;;;14.56;99.25;96483.81;5104413;28;19934;-72
2023/09/23 09:49:57;;;;;;;;;;;;;;;14.62;100.00;96501.31;5104924;28;19933;-71
2023/09/23 09:52:23;;;;;;;;;;;;;;;14.69;99.10;96485.31;5104104;28;19939;-68
2023/09/23 09:54:53;;;;;;;;;;;;;;;14.71;94.29;96449.72;5104342;28;19927;-72
2023/09/23 09:57:22;;;;;;;;;;;;;;;14.77;100.00;96500.75;5103089;28;19935;-73
2023/09/23 09:59:48;;;;;;;;;;;;;;;14.81;95.88;96460.41;5108017;28;19946;-72
2023/09/23 10:02:17;;;;;;;;;;;;;;;14.84;95.66;96456.47;5107933;28;19929;-72
2023/09/23 10:04:46;;;;;;;;;;;;;;;14.90;93.67;96457.34;5108377;28;19926;-73
2023/09/23 10:07:12;;;;;;;;;;;;;;;14.99;98.69;96485.72;5107854;28;19940;-72
2023/09/23 10:09:48;;;;;;;;;;;;;;;15.05;91.06;96425.84;5107785;28;19934;-70
2023/09/23 10:12:19;;;;;;;;;;;;;;;15.04;94.73;96460.44;5108588;28;19937;-69
2023/09/23 10:14:57;;;;;;;;;;;;;;;15.01;94.08;96466.97;5108217;28;19970;-70
2023/09/23 10:17:30;;;;;;;;;;;;;;;14.98;94.72;96462.19;5107638;28;20267;-70
2023/09/23 10:19:56;;;;;;;;;;;;;;;15.01;100.00;96515.34;5106300;28;19956;-70
2023/09/23 10:22:23;;;;;;;;;;;;;;;15.11;97.17;96485.59;5107798;28;19939;-70
2023/09/23 10:25:00;;;;;;;;;;;;;;;15.29;95.32;96475.78;5107482;28;19938;-70
2023/09/23 10:27:26;;;;;;;;;;;;;;;15.48;86.69;96420.75;5107449;28;20122;-70
2023/09/23 10:29:52;;;;;;;;;;;;;;;15.64;89.30;96430.41;5107485;28;19933;-69
2023/09/23 10:32:18;;;;;;;;;;;;;;;15.79;91.12;96445.63;5107364;28;19983;-70
2023/09/23 10:34:48;;;;;;;;;;;;;;;15.87;85.96;96402.09;5107762;28;19972;-70
2023/09/23 10:37:30;;;;;;;;;;;;;;;15.81;87.58;96427.69;5108074;28;19935;-70
2023/09/23 10:39:59;;;;;;;;;;;;;;;15.78;87.36;96434.28;5107099;28;19959;-70
2023/09/23 10:42:25;;;;;;;;;;;;;;;15.70;89.16;96500.78;5107729;28;19938;-70
2023/09/23 10:44:50;;;;;;;;;;;;;;;15.75;87.23;96482.38;5107399;28;19928;-70
2023/09/23 10:47:16;;;;;;;;;;;;;;;15.92;88.31;96500.78;5107101;28;19984;-70
2023/09/23 10:49:43;;;;;;;;;;;;;;;16.07;90.07;96513.34;5107837;28;19933;-69
2023/09/23 10:52:10;;;;;;;;;;;;;;;16.15;86.25;96499.66;5107255;28;19939;-69
2023/09/23 10:54:36;;;;;;;;;;;;;;;16.26;86.62;96505.84;5107395;28;19938;-72
2023/09/23 10:57:02;;;;;;;;;;;;;;;16.39;83.84;96491.38;5107735;28;19935;-71
2023/09/23 10:59:28;;;;;;;;;;;;;;;16.47;85.33;96501.50;5107279;28;19950;-70
2023/09/23 11:01:55;;;;;;;;;;;;;;;16.46;75.33;96484.00;5107601;28;19937;-70
2023/09/23 11:04:22;;;;;;;;;;;;;;;16.37;71.97;96488.19;5106775;28;19933;-70
2023/09/23 11:06:48;;;;;;;;;;;;;;;16.50;77.47;96508.91;5106721;28;19936;-69
2023/09/23 11:09:14;;;;;;;;;;;;;;;16.73;75.25;96499.03;5106351;28;19937;-70
2023/09/23 11:11:40;;;;;;;;;;;;;;;16.94;78.06;96515.84;5106604;28;19969;-70
2023/09/23 11:14:13;;;;;;;;;;;;;;;17.01;76.27;96517.22;5106607;28;19945;-70
2023/09/23 11:16:43;;;;;;;;;;;;;;;17.21;75.61;96502.47;5106363;28;20217;-70
2023/09/23 11:19:09;;;;;;;;;;;;;;;17.36;71.34;96489.28;5106167;28;20234;-70
2023/09/23 11:21:42;;;;;;;;;;;;;;;17.49;78.08;96509.22;5106412;28;19970;-69
2023/09/23 11:24:08;;;;;;;;;;;;;;;17.57;76.72;96508.69;5106758;28;19934;-75
2023/09/23 11:26:37;;;;;;;;;;;;;;;17.69;71.08;96503.19;5106639;28;19976;-70
2023/09/23 11:29:03;;;;;;;;;;;;;;;17.89;77.43;96513.06;5106785;28;19945;-70
2023/09/23 11:31:30;;;;;;;;;;;;;;;18.08;69.85;96500.09;5106468;28;19999;-69
2023/09/23 11:33:56;;;;;;;;;;;;;;;18.16;70.20;96512.03;5106860;28;20221;-69
2023/09/23 11:36:21;;;;;;;;;;;;;;;18.28;73.81;96517.09;5106661;28;19927;-70
2023/09/23 11:38:47;;;;;;;;;;;;;;;18.37;71.29;96508.34;5105984;28;19947;-69
2023/09/23 11:41:13;;;;;;;;;;;;;;;18.31;64.52;96505.94;5106314;28;19948;-70
2023/09/23 11:43:39;;;;;;;;;;;;;;;18.37;71.35;96526.09;5105979;28;20008;-70
2023/09/23 11:46:05;;;;;;;;;;;;;;;18.54;68.87;96518.69;5105951;28;19938;-69
2023/09/23 11:48:30;;;;;;;;;;;;;;;18.66;66.77;96510.41;5105906;28;20209;-70
2023/09/23 11:50:56;;;;;;;;;;;;;;;18.81;74.67;96536.19;5106408;28;19943;-69
2023/09/23 11:53:22;;;;;;;;;;;;;;;18.88;61.97;96514.66;5104755;28;20128;-70
2023/09/23 11:55:49;;;;;;;;;;;;;;;18.77;67.22;96537.75;5106248;28;19929;-70
2023/09/23 11:58:15;;;;;;;;;;;;;;;18.52;70.00;96549.19;5105656;28;19933;-70
2023/09/23 12:00:41;;;;;;;;;;;;;;;18.52;72.14;96551.88;5106195;28;19935;-70
2023/09/23 12:03:07;;;;;;;;;;;;;;;18.43;61.65;96527.69;5105035;28;19944;-70
2023/09/23 12:05:32;;;;;;;;;;;;;;;18.33;62.52;96539.13;5106171;28;19975;-69
2023/09/23 12:07:58;;;;;;;;;;;;;;;18.38;70.70;96547.09;5105532;28;19967;-68
2023/09/23 12:10:25;;;;;;;;;;;;;;;18.46;62.07;96530.63;5105446;28;19940;-68
2023/09/23 12:12:51;;;;;;;;;;;;;;;18.58;62.29;96533.03;5105718;28;19946;-69
2023/09/23 12:15:17;;;;;;;;;;;;;;;18.80;68.07;96542.59;5105244;28;20034;-69
2023/09/23 12:17:43;;;;;;;;;;;;;;;18.94;63.62;96529.53;5105853;28;20281;-69
2023/09/23 12:20:11;;;;;;;;;;;;;;;19.00;65.30;96533.78;5105522;28;20157;-72
2023/09/23 12:22:38;;;;;;;;;;;;;;;19.09;65.73;96534.84;5105172;28;19933;-71
2023/09/23 12:25:05;;;;;;;;;;;;;;;19.15;64.40;96532.94;5104085;28;19938;-70
2023/09/23 12:27:31;;;;;;;;;;;;;;;19.03;66.51;96533.25;5105422;28;20128;-70
2023/09/23 12:29:56;;;;;;;;;;;;;;;18.85;66.45;96545.22;5105083;28;20004;-70
2023/09/23 12:32:22;;;;;;;;;;;;;;;18.77;66.09;96543.91;5103914;28;19940;-70
2023/09/23 12:34:49;;;;;;;;;;;;;;;18.84;69.27;96541.78;5104314;28;19961;-70
2023/09/23 12:37:15;;;;;;;;;;;;;;;18.92;66.88;96547.59;5105793;28;20115;-70
2023/09/23 12:39:41;;;;;;;;;;;;;;;18.81;67.69;96557.44;5104918;28;19949;-70
2023/09/23 12:42:06;;;;;;;;;;;;;;;18.64;66.61;96552.41;5105526;28;19939;-71